createdAt,value
2023-11-10T04:41:12.278Z,10.00
2023-11-10T04:43:52.685Z,10.52
2023-11-10T04:46:40.232Z,10.82
2023-11-10T04:49:20.717Z,10.85
2023-11-10T04:52:07.243Z,11.18
2023-11-10T04:54:55.260Z,11.07
2023-11-10T04:57:42.317Z,11.68
2023-11-10T05:00:25.037Z,11.73
2023-11-10T05:03:14.283Z,11.65
2023-11-10T05:06:01.247Z,10.05
2023-11-10T05:08:48.264Z,11.00
2023-11-10T05:11:36.170Z,11.55
2023-11-10T05:14:23.266Z,10.70
2023-11-10T05:17:03.734Z,11.07
2023-11-10T05:19:50.233Z,11.50
2023-11-10T05:22:37.259Z,13.75
2023-11-10T05:25:26.264Z,13.07
2023-11-10T05:28:06.578Z,13.85
2023-11-10T05:30:53.228Z,13.23
2023-11-10T05:33:33.598Z,14.80
2023-11-10T05:36:20.292Z,13.73
2023-11-10T05:39:00.932Z,14.10
2023-11-10T05:41:50.226Z,13.65
2023-11-10T05:44:37.233Z,12.23
2023-11-10T05:47:17.301Z,14.18
2023-11-10T05:50:04.188Z,14.20
2023-11-10T05:52:51.227Z,14.48
2023-11-10T05:55:33.917Z,15.70
2023-11-10T05:58:21.192Z,15.02
2023-11-10T06:01:01.704Z,17.05
2023-11-10T06:03:49.203Z,16.77
2023-11-10T06:06:29.744Z,19.08
2023-11-10T06:09:16.163Z,18.10
2023-11-10T06:11:56.943Z,18.33
2023-11-10T06:14:45.191Z,18.80
2023-11-10T06:17:25.706Z,18.05
2023-11-10T06:20:12.136Z,18.52
2023-11-10T06:22:53.524Z,20.85
2023-11-10T06:25:40.147Z,20.38
2023-11-10T06:28:27.100Z,20.33
2023-11-10T06:31:14.157Z,21.17
2023-11-10T06:33:54.599Z,22.65
2023-11-10T06:36:41.139Z,22.38
2023-11-10T06:39:21.501Z,21.88
2023-11-10T06:42:08.138Z,24.58
2023-11-10T06:44:56.398Z,22.45
2023-11-10T06:47:37.247Z,19.17
2023-11-10T06:50:17.612Z,22.88
2023-11-10T06:53:04.111Z,22.50
2023-11-10T06:55:44.555Z,21.92
2023-11-10T06:58:31.080Z,19.38
2023-11-10T07:01:18.535Z,19.48
2023-11-10T07:03:59.095Z,21.63
2023-11-10T07:06:46.398Z,21.52
2023-11-10T07:09:27.218Z,21.08
2023-11-10T07:12:16.082Z,18.40
2023-11-10T07:14:57.058Z,17.42
2023-11-10T07:17:45.230Z,17.23
2023-11-10T07:20:26.088Z,18.23
2023-11-10T07:23:13.112Z,18.13
2023-11-10T07:25:53.879Z,18.08
2023-11-10T07:28:48.049Z,17.70
2023-11-10T07:31:35.074Z,17.70
2023-11-10T07:34:22.131Z,18.02
2023-11-10T07:37:02.522Z,17.40
2023-11-10T07:39:49.035Z,17.67
2023-11-10T07:42:37.482Z,17.73
2023-11-10T07:45:22.080Z,17.75
2023-11-10T07:48:09.110Z,17.48
2023-11-10T07:50:49.163Z,18.70
2023-11-10T07:53:36.005Z,19.83
2023-11-10T07:56:16.127Z,18.30
2023-11-10T07:59:03.056Z,17.75
2023-11-10T08:01:43.295Z,18.00
2023-11-10T08:04:30.224Z,18.08
2023-11-10T08:07:11.433Z,17.10
2023-11-10T08:09:59.626Z,16.90
2023-11-10T08:12:47.118Z,16.98
2023-11-10T08:15:27.415Z,17.02
2023-11-10T08:18:15.031Z,16.63
2023-11-10T08:20:55.549Z,16.88
2023-11-10T08:23:42.992Z,17.30
2023-11-10T08:26:23.394Z,17.33
2023-11-10T08:29:12.013Z,17.15
2023-11-10T08:31:53.912Z,16.35
2023-11-10T08:34:41.037Z,17.70
2023-11-10T08:37:27.964Z,16.95
2023-11-10T08:40:16.960Z,16.80
2023-11-10T08:43:10.998Z,17.20
2023-11-10T08:45:51.495Z,17.10
2023-11-10T08:48:37.961Z,17.17
2023-11-10T08:51:18.456Z,17.40
2023-11-10T08:54:04.980Z,17.27
2023-11-10T08:56:52.482Z,16.50
2023-11-10T08:59:32.006Z,16.55
2023-11-10T09:02:19.983Z,16.60
2023-11-10T09:05:06.982Z,16.60
2023-11-10T09:07:53.990Z,16.48
2023-11-10T09:10:40.897Z,23.80
2023-11-10T09:13:21.373Z,20.23
2023-11-10T09:16:08.077Z,16.65
2023-11-10T09:18:55.005Z,16.83
2023-11-10T09:21:49.113Z,16.77
2023-11-10T09:24:29.378Z,17.35
2023-11-10T09:27:15.943Z,16.88
2023-11-10T09:29:56.289Z,17.60
2023-11-10T09:32:42.922Z,17.10
2023-11-10T09:35:30.014Z,17.10
2023-11-10T09:38:16.904Z,18.05
2023-11-10T09:40:59.008Z,17.25
2023-11-10T09:43:45.978Z,18.10
2023-11-10T09:46:26.864Z,17.23
2023-11-10T09:49:13.967Z,17.30
2023-11-10T09:52:01.967Z,17.63
2023-11-10T09:54:50.987Z,17.60
2023-11-10T09:57:32.244Z,17.17
2023-11-10T10:00:20.913Z,17.13
2023-11-10T10:03:07.985Z,17.13
2023-11-10T10:05:58.908Z,16.33
2023-11-10T10:08:41.045Z,17.27
2023-11-10T10:11:27.893Z,16.98
2023-11-10T10:14:15.890Z,16.60
2023-11-10T10:17:00.074Z,16.77
2023-11-10T10:22:40.005Z,17.42
2023-11-10T10:25:27.959Z,17.77
2023-11-10T10:28:14.868Z,17.67
2023-11-10T10:31:03.004Z,16.98
2023-11-10T10:33:43.712Z,17.30
2023-11-10T10:36:30.851Z,17.95
2023-11-10T10:39:15.095Z,17.70
2023-11-10T10:42:01.868Z,16.85
2023-11-10T10:44:41.979Z,16.67
2023-11-10T10:47:29.866Z,17.40
2023-11-10T10:50:13.997Z,16.90
2023-11-10T10:53:03.910Z,17.95
2023-11-10T10:55:54.222Z,17.00
2023-11-10T10:58:33.858Z,17.10
2023-11-10T11:01:17.807Z,17.98
2023-11-10T11:16:35.590Z,16.92
2023-11-10T11:19:27.200Z,17.63
2023-11-10T11:22:15.582Z,16.60
2023-11-10T11:25:16.637Z,16.75
2023-11-10T11:28:06.732Z,17.52
2023-11-10T11:30:54.699Z,16.48
2023-11-10T11:33:34.802Z,16.98
2023-11-10T11:36:23.681Z,17.30
2023-11-10T11:39:04.028Z,16.45
2023-11-10T11:41:55.666Z,16.05
2023-11-10T11:44:40.765Z,16.80
2023-11-10T11:47:27.661Z,16.98
2023-11-10T11:50:08.007Z,17.48
2023-11-10T11:52:54.559Z,16.25
2023-11-10T11:55:41.556Z,16.38
2023-11-10T11:58:29.640Z,16.05
2023-11-10T12:01:17.571Z,16.10
2023-11-10T12:03:58.372Z,15.43
2023-11-10T12:06:50.657Z,16.42
2023-11-10T12:09:30.869Z,16.25
2023-11-10T12:12:18.530Z,16.27
2023-11-10T12:15:06.579Z,16.10
2023-11-10T12:17:53.477Z,16.00
2023-11-10T12:20:40.510Z,16.80
2023-11-10T12:23:20.595Z,16.25
2023-11-10T12:26:07.585Z,15.88
2023-11-10T12:28:49.718Z,15.55
2023-11-10T12:31:36.559Z,15.27
2023-11-10T12:34:16.645Z,15.55
2023-11-10T12:37:09.623Z,15.80
2023-11-10T12:39:57.525Z,16.20
2023-11-10T12:42:38.301Z,15.70
2023-11-10T12:45:27.611Z,16.02
2023-11-10T12:48:21.521Z,15.90
2023-11-10T12:51:09.525Z,16.23
2023-11-10T12:54:06.654Z,15.60
2023-11-10T12:56:47.552Z,15.60
2023-11-10T12:59:37.650Z,16.05
2023-11-10T13:02:17.504Z,16.10
2023-11-10T13:05:04.477Z,15.40
2023-11-10T13:07:52.552Z,16.35
2023-11-10T13:10:39.522Z,15.73
2023-11-10T13:13:19.805Z,16.17
2023-11-10T13:16:06.793Z,15.73
2023-11-10T13:18:53.667Z,15.93
2023-11-10T13:21:33.995Z,15.70
2023-11-10T13:24:21.480Z,15.30
2023-11-10T13:27:13.301Z,15.45
2023-11-10T13:30:00.434Z,15.82
2023-11-10T13:32:51.523Z,14.77
2023-11-10T13:35:38.462Z,15.40
2023-11-10T13:38:27.628Z,15.35
2023-11-10T13:41:15.519Z,15.38
2023-11-10T13:44:02.492Z,14.77
2023-11-10T13:46:42.639Z,14.65
2023-11-10T13:49:29.463Z,15.45
2023-11-10T13:52:11.389Z,15.38
2023-11-10T13:54:58.469Z,15.20
2023-11-10T13:57:38.576Z,15.45
2023-11-10T14:00:27.457Z,15.00
2023-11-10T14:03:08.895Z,15.80
2023-11-10T14:05:55.390Z,15.52
2023-11-10T14:08:35.690Z,15.23
2023-11-10T14:11:22.471Z,14.75
2023-11-10T14:14:09.510Z,15.18
2023-11-10T14:16:56.498Z,14.82
2023-11-10T14:19:36.390Z,15.30
2023-11-10T14:22:25.114Z,14.48
2023-11-10T14:25:05.412Z,14.15
2023-11-10T14:27:45.874Z,13.90
2023-11-10T14:30:32.352Z,14.00
2023-11-10T14:33:19.480Z,12.90
2023-11-10T14:36:02.818Z,13.40
2023-11-10T14:38:56.346Z,13.18
2023-11-10T14:41:36.577Z,12.93
2023-11-10T14:44:23.445Z,12.70
2023-11-10T14:47:19.401Z,12.13
2023-11-10T14:50:14.825Z,12.18
2023-11-10T14:55:42.363Z,12.50
2023-11-10T14:58:22.476Z,12.07
2023-11-10T15:01:10.483Z,12.18
2023-11-10T15:03:51.858Z,12.13
2023-11-10T15:06:40.450Z,11.80
2023-11-10T15:09:21.579Z,11.35
2023-11-10T15:12:08.463Z,11.63
2023-11-10T15:15:02.302Z,11.90
2023-11-10T15:17:49.369Z,11.63
2023-11-10T15:20:29.453Z,11.43
2023-11-10T15:23:17.413Z,11.93
2023-11-10T15:26:00.297Z,12.30
2023-11-10T15:28:50.243Z,11.80
2023-11-10T15:31:36.390Z,11.90
2023-11-10T15:34:27.363Z,11.00
2023-11-10T15:37:15.366Z,11.60
2023-11-10T15:40:02.368Z,11.40
2023-11-10T15:42:49.342Z,11.80
2023-11-10T15:45:39.401Z,11.10
2023-11-10T15:48:36.964Z,11.57
2023-11-10T15:51:29.792Z,11.95
2023-11-10T15:54:13.314Z,11.45
2023-11-10T15:57:00.983Z,11.10
2023-11-10T15:59:41.305Z,11.38
2023-11-10T16:02:34.585Z,11.75
2023-11-10T16:05:14.627Z,11.82
2023-11-10T16:08:01.323Z,11.90
2023-11-10T16:10:41.413Z,11.85
2023-11-10T16:13:29.248Z,11.38
2023-11-10T16:16:23.325Z,11.70
2023-11-10T16:19:10.309Z,11.50
2023-11-10T16:21:50.442Z,10.65
2023-11-10T16:24:37.315Z,11.25
2023-11-10T16:27:17.332Z,11.68
2023-11-10T16:30:04.301Z,12.15
2023-11-10T16:32:51.279Z,11.60
2023-11-10T16:35:38.227Z,12.82
2023-11-10T16:38:25.527Z,11.35
2023-11-10T16:41:07.213Z,10.95
2023-11-10T16:43:49.126Z,10.75
2023-11-10T16:46:36.412Z,11.88
2023-11-10T16:49:26.491Z,11.65
2023-11-10T16:52:08.111Z,11.15
2023-11-10T16:54:55.319Z,10.75
2023-11-10T16:57:38.017Z,10.70
2023-11-10T17:00:33.780Z,10.75
2023-11-10T17:03:20.623Z,11.70
2023-11-10T17:06:07.184Z,10.90
2023-11-10T17:08:47.335Z,11.40
2023-11-10T17:11:34.215Z,11.43
2023-11-10T17:14:21.185Z,12.30
2023-11-10T17:17:08.990Z,11.15
2023-11-10T17:19:50.289Z,12.10
2023-11-10T17:22:37.185Z,10.65
2023-11-10T17:25:17.320Z,11.52
2023-11-10T17:28:04.209Z,11.10
2023-11-10T17:30:45.267Z,11.07
2023-11-10T17:33:32.212Z,11.93
2023-11-10T17:36:16.241Z,10.90
2023-11-10T17:39:03.204Z,10.77
2023-11-10T17:41:43.362Z,10.55
2023-11-10T17:44:30.194Z,11.10
2023-11-10T17:47:10.654Z,11.10
2023-11-10T17:49:57.160Z,11.30
2023-11-10T17:52:44.172Z,11.85
2023-11-10T17:55:31.524Z,11.85
2023-11-10T17:58:11.202Z,11.52
2023-11-10T18:00:52.658Z,10.95
2023-11-10T18:03:39.233Z,10.70
2023-11-10T18:06:28.136Z,11.02
2023-11-10T18:09:13.613Z,10.50
2023-11-10T18:12:00.134Z,10.15
2023-11-10T18:14:40.210Z,10.13
2023-11-10T18:17:28.196Z,11.88
2023-11-10T18:20:08.229Z,11.68
2023-11-10T18:22:55.122Z,12.05
2023-11-10T18:25:42.215Z,17.23
2023-11-10T18:28:29.078Z,20.77
2023-11-10T18:31:09.451Z,17.90
2023-11-10T18:33:56.162Z,16.80
2023-11-10T18:36:36.223Z,16.35
2023-11-10T18:39:23.210Z,16.23
2023-11-10T18:42:04.636Z,15.73
2023-11-10T19:18:00.184Z,11.52
2023-11-10T19:20:40.505Z,10.70
2023-11-10T19:23:27.019Z,10.73
2023-11-10T19:26:08.829Z,10.48
2023-11-10T19:28:58.088Z,10.85
2023-11-10T19:31:38.702Z,10.35
2023-11-10T19:34:25.124Z,9.57
2023-11-10T19:37:05.491Z,9.55
2023-11-10T19:39:52.097Z,8.40
2023-11-10T19:42:32.448Z,7.85
2023-11-10T19:45:20.004Z,7.00
2023-11-10T19:48:07.168Z,7.18
2023-11-10T19:50:47.007Z,6.45
2023-11-10T19:53:34.376Z,6.15
2023-11-10T19:56:14.075Z,6.00
2023-11-10T20:01:44.009Z,6.82
2023-11-10T20:04:24.404Z,6.55
2023-11-10T20:07:11.007Z,6.80
2023-11-10T20:09:51.373Z,6.53
2023-11-10T20:12:38.032Z,6.50
2023-11-10T20:15:19.199Z,6.63
2023-11-10T20:18:06.063Z,6.20
2023-11-10T20:20:47.278Z,6.35
2023-11-10T20:23:33.944Z,6.32
2023-11-10T20:26:21.024Z,6.88
2023-11-10T20:29:07.973Z,5.85
2023-11-10T20:31:48.580Z,5.68
2023-11-10T20:34:41.938Z,5.82
2023-11-10T20:37:28.943Z,5.50
2023-11-10T20:40:17.990Z,5.15
2023-11-10T20:42:59.147Z,5.75
2023-11-10T20:45:49.002Z,5.60
2023-11-10T20:48:42.955Z,5.05
2023-11-10T20:51:24.344Z,5.47
2023-11-10T20:54:11.144Z,5.70
2023-11-10T20:56:51.279Z,5.15
2023-11-10T20:59:38.925Z,4.60
2023-11-10T21:02:19.997Z,4.53
2023-11-10T21:05:06.998Z,5.10
2023-11-10T21:07:53.913Z,4.68
2023-11-10T21:10:34.151Z,4.88
2023-11-10T21:13:20.947Z,5.43
2023-11-10T21:16:01.052Z,4.80
2023-11-10T21:18:47.964Z,5.35
2023-11-10T21:21:34.932Z,5.70
2023-11-10T21:24:16.295Z,5.82
2023-11-10T21:27:02.903Z,6.57
2023-11-10T21:29:43.243Z,5.78
2023-11-10T21:32:30.005Z,6.15
2023-11-10T21:35:16.951Z,5.70
2023-11-10T21:37:57.194Z,5.90
2023-11-10T21:40:48.890Z,7.38
2023-11-10T21:43:29.087Z,6.20
2023-11-10T21:46:15.893Z,6.03
2023-11-10T21:49:09.836Z,6.95
2023-11-10T21:51:56.886Z,7.87
2023-11-10T21:54:36.989Z,7.45
2023-11-10T21:57:23.933Z,7.30
2023-11-10T22:00:04.052Z,6.80
2023-11-10T22:02:50.889Z,8.23
2023-11-10T22:05:37.847Z,9.10
2023-11-10T22:08:19.497Z,8.15
2023-11-10T22:11:05.827Z,8.32
2023-11-10T22:13:52.795Z,8.50
2023-11-10T22:16:33.137Z,8.32
2023-11-10T22:19:19.884Z,8.60
2023-11-10T22:22:04.113Z,8.82
2023-11-10T22:24:58.916Z,8.07
2023-11-10T22:27:39.652Z,8.32
2023-11-10T22:30:26.848Z,8.35
2023-11-10T22:33:14.932Z,8.30
2023-11-10T22:36:01.813Z,8.82
2023-11-10T22:38:48.895Z,9.20
2023-11-10T22:41:29.029Z,14.27
2023-11-10T22:44:15.797Z,14.32
2023-11-10T22:47:02.785Z,14.10
2023-11-10T22:49:49.970Z,13.80
2023-11-10T22:52:29.819Z,13.18
2023-11-10T22:55:18.258Z,13.07
2023-11-10T22:57:57.930Z,13.18
2023-11-10T23:00:51.813Z,13.88
2023-11-10T23:03:38.815Z,14.60
2023-11-10T23:18:20.912Z,13.40
2023-11-10T23:21:01.517Z,13.65
2023-11-10T23:23:47.918Z,13.32
2023-11-10T23:26:34.984Z,14.98
2023-11-10T23:29:15.903Z,14.63
2023-11-10T23:31:56.243Z,14.25
2023-11-10T23:34:42.898Z,15.77
2023-11-10T23:37:23.273Z,14.23
2023-11-10T23:40:09.898Z,14.38
2023-11-10T23:42:56.843Z,14.43
2023-11-10T23:45:36.969Z,15.13
2023-11-10T23:48:25.075Z,14.77
2023-11-10T23:51:04.940Z,15.50
2023-11-10T23:53:52.841Z,14.80
2023-11-10T23:56:39.837Z,15.38
2023-11-10T23:59:26.837Z,14.95
